Terminal Aerodrome Forecast
Issued by NWS Boise, ID

Home | Current Version | Previous Version | Text Only | Print | Product List | Glossary On
Versions: 1 2 3 4 5 6 7 8 9 10 11 12 13 14 15 16 17 18 19 20 21 22 23 24 25 26
000
FTUS45 KBOI 052338
TAFBOI
TAF
KBOI 052338Z 0600/0624 VRB05KT P6SM FEW050
     FM060500 13009KT P6SM SCT100 OVC200
     FM061000 13013KT P6SM VCSH SCT050 OVC100
     FM061200 13013KT 5SM -SHSN SCT015 OVC025 PROB30 0614/0618 2SM
      -SHSN BKN015=

USA.gov is the U.S. government's official web portal to all federal, state and local government web resources and services.